Stonersville, Pennsylvania
Current Conditions -  °F | °C
As of 8:54 AM on Monday 26 Jan 2015 (Local Time) from KRDG Reporting Station
Light Snow Light Snow  
Wind Chill: 12°   Ceiling: 1900
Heat Index: 23°   Visibility: 7mi
Dew Point: 16°   Wind: 12mph
Humidity: 74%   Direction: 80°E
Pressure: 29.91"   Gusts: 17mph
Location:  40.2313°N, 75.8555°W
Report Text: KRDG 261354Z AUTO 08010G15KT 7SM -SN BKN019 OVC024 M05/M09 A2991 RMK AO2 UPB47E51SNB51 SLP137 P0000 T10501089
Loading
Personal Weather Stations






























Interactive Weather Map New forecast layout! Learn more

10-Day Weather Forecast

Advertisements
Track Severe Weather on mobile